createdAt,value
2023-05-06T00:00:09.360Z,97355.73
2023-05-06T00:03:03.379Z,97355.88
2023-05-06T00:05:31.408Z,97354.52
2023-05-06T00:07:59.482Z,97353.14
2023-05-06T00:10:27.439Z,97352.33
2023-05-06T00:12:55.708Z,97352.77
2023-05-06T00:15:23.713Z,97352.50
2023-05-06T00:17:52.307Z,97343.27
2023-05-06T00:20:20.779Z,97348.32
2023-05-06T00:22:48.658Z,97349.95
2023-05-06T00:25:16.586Z,97349.36
2023-05-06T00:27:44.618Z,97350.02
2023-05-06T00:30:12.665Z,97346.72
2023-05-06T00:32:40.897Z,97350.82
2023-05-06T00:35:09.579Z,97348.64
2023-05-06T00:37:38.437Z,97348.06
2023-05-06T00:40:06.944Z,97350.84
2023-05-06T00:42:34.914Z,97353.33
2023-05-06T00:45:02.879Z,97353.52
2023-05-06T00:47:31.024Z,97353.34
2023-05-06T00:49:59.353Z,97352.98
2023-05-06T00:52:27.317Z,97353.30
2023-05-06T00:54:55.727Z,97352.27
2023-05-06T00:57:23.773Z,97354.02
2023-05-06T00:59:51.852Z,97359.86
2023-05-06T01:02:20.133Z,97358.23
2023-05-06T01:04:48.124Z,97360.11
2023-05-06T01:07:35.014Z,97361.62
2023-05-06T01:10:29.336Z,97360.35
2023-05-06T01:12:57.384Z,97360.34
2023-05-06T01:15:41.094Z,97360.67
2023-05-06T01:18:10.906Z,97358.97
2023-05-06T01:20:40.429Z,97359.14
2023-05-06T01:23:12.064Z,97356.29
2023-05-06T01:25:40.165Z,97359.92
2023-05-06T01:28:10.588Z,97364.16
2023-05-06T01:30:41.216Z,97365.90
2023-05-06T01:33:18.405Z,97370.73
2023-05-06T01:35:46.590Z,97371.63
2023-05-06T01:38:14.470Z,97371.58
2023-05-06T01:40:44.378Z,97368.50
2023-05-06T01:43:13.364Z,97369.16
2023-05-06T01:45:43.911Z,97364.98
2023-05-06T01:48:12.292Z,97364.27
2023-05-06T01:50:41.085Z,97365.83
2023-05-06T01:53:09.164Z,97364.45
2023-05-06T01:55:37.041Z,97364.77
2023-05-06T01:58:05.121Z,97364.27
2023-05-06T02:00:34.123Z,97366.25
2023-05-06T02:03:01.977Z,97364.14
2023-05-06T02:05:30.144Z,97366.61
2023-05-06T02:07:58.788Z,97371.50
2023-05-06T02:10:26.581Z,97374.31
2023-05-06T02:12:59.758Z,97375.23
2023-05-06T02:15:27.995Z,97376.45
2023-05-06T02:17:57.261Z,97377.02
2023-05-06T02:20:26.915Z,97375.02
2023-05-06T02:22:54.884Z,97376.02
2023-05-06T02:25:24.088Z,97377.05
2023-05-06T02:27:52.058Z,97378.45
2023-05-06T02:30:20.102Z,97377.02
2023-05-06T02:32:48.335Z,97370.05
2023-05-06T02:35:16.406Z,97367.55
2023-05-06T02:37:44.262Z,97366.02
2023-05-06T02:40:12.352Z,97369.27
2023-05-06T02:42:40.253Z,97369.14
2023-05-06T02:45:08.740Z,97369.84
2023-05-06T02:47:36.891Z,97373.92
2023-05-06T02:50:05.240Z,97376.71
2023-05-06T02:52:36.305Z,97375.32
2023-05-06T02:55:04.536Z,97378.27
2023-05-06T02:57:32.427Z,97377.39
2023-05-06T03:00:00.424Z,97374.77
2023-05-06T03:02:28.464Z,97372.16
2023-05-06T03:04:56.456Z,97374.19
2023-05-06T03:07:24.254Z,97375.83
2023-05-06T03:09:52.242Z,97376.59
2023-05-06T03:12:20.076Z,97373.80
2023-05-06T03:14:47.958Z,97371.96
2023-05-06T03:17:15.829Z,97372.78
2023-05-06T03:19:44.311Z,97375.49
2023-05-06T03:22:12.706Z,97376.34
2023-05-06T03:24:42.953Z,97380.30
2023-05-06T03:27:11.600Z,97381.58
2023-05-06T03:29:40.210Z,97378.20
2023-05-06T03:32:09.078Z,97383.02
2023-05-06T03:34:41.825Z,97382.88
2023-05-06T03:37:11.071Z,97387.84
2023-05-06T03:39:40.595Z,97387.64
2023-05-06T03:42:09.735Z,97385.31
2023-05-06T03:44:38.599Z,97387.41
2023-05-06T03:47:07.381Z,97388.27
2023-05-06T03:49:36.381Z,97385.38
2023-05-06T03:52:05.591Z,97393.84
2023-05-06T03:54:33.879Z,97388.70
2023-05-06T03:57:03.019Z,97388.75
2023-05-06T03:59:31.639Z,97388.48
2023-05-06T04:02:00.496Z,97390.54
2023-05-06T04:04:28.426Z,97394.70
2023-05-06T04:06:57.318Z,97396.29
2023-05-06T04:09:25.405Z,97396.51
2023-05-06T04:11:54.061Z,97396.57
2023-05-06T04:14:22.305Z,97395.73
2023-05-06T04:16:50.637Z,97396.73
2023-05-06T04:19:18.728Z,97391.36
2023-05-06T04:21:47.329Z,97398.77
2023-05-06T04:24:16.307Z,97398.95
2023-05-06T04:26:44.385Z,97403.23
2023-05-06T04:29:12.568Z,97404.91
2023-05-06T04:31:46.461Z,97406.27
2023-05-06T04:34:15.252Z,97407.42
2023-05-06T04:36:43.665Z,97410.94
2023-05-06T04:39:34.465Z,97409.92
2023-05-06T04:42:02.369Z,97410.22
2023-05-06T04:44:36.657Z,97411.66
2023-05-06T04:47:05.625Z,97411.89
2023-05-06T04:49:33.934Z,97410.56
2023-05-06T04:52:02.743Z,97411.11
2023-05-06T04:54:30.843Z,97411.96
2023-05-06T04:56:58.764Z,97413.69
2023-05-06T04:59:27.299Z,97414.36
2023-05-06T05:01:55.527Z,97413.34
2023-05-06T05:04:24.233Z,97408.50
2023-05-06T05:06:52.788Z,97408.31
2023-05-06T05:09:20.702Z,97408.30
2023-05-06T05:11:49.273Z,97407.40
2023-05-06T05:14:17.242Z,97406.52
2023-05-06T05:16:45.241Z,97404.92
2023-05-06T05:19:13.295Z,97405.59
2023-05-06T05:21:41.481Z,97404.97
2023-05-06T05:24:09.962Z,97400.94
2023-05-06T05:26:37.749Z,97402.07
2023-05-06T05:29:06.697Z,97402.53
2023-05-06T05:31:34.636Z,97401.61
2023-05-06T05:34:02.870Z,97399.78
2023-05-06T05:36:30.609Z,97399.85
2023-05-06T05:38:59.637Z,97392.88
2023-05-06T05:41:28.714Z,97397.40
2023-05-06T05:43:56.924Z,97392.65
2023-05-06T05:46:25.451Z,97388.74
2023-05-06T05:48:53.901Z,97392.57
2023-05-06T05:51:22.896Z,97389.33
2023-05-06T05:53:52.304Z,97389.36
2023-05-06T05:56:20.999Z,97387.85
2023-05-06T05:58:49.868Z,97384.77
2023-05-06T06:01:17.965Z,97380.42
2023-05-06T06:03:47.181Z,97380.46
2023-05-06T06:06:15.342Z,97379.11
2023-05-06T06:08:43.694Z,97376.88
2023-05-06T06:11:12.410Z,97380.52
2023-05-06T06:13:41.513Z,97378.42
2023-05-06T06:16:09.520Z,97377.36
2023-05-06T06:18:37.332Z,97381.52
2023-05-06T06:21:06.537Z,97380.48
2023-05-06T06:23:34.455Z,97378.57
2023-05-06T06:26:03.220Z,97382.84
2023-05-06T06:28:31.621Z,97384.02
2023-05-06T06:31:00.401Z,97381.72
2023-05-06T06:33:28.276Z,97381.87
2023-05-06T06:35:57.176Z,97383.73
2023-05-06T06:38:25.990Z,97380.60
2023-05-06T06:40:54.247Z,97384.36
2023-05-06T06:43:23.969Z,97382.39
2023-05-06T06:45:57.672Z,97381.64
2023-05-06T06:48:25.599Z,97384.17
2023-05-06T06:50:53.512Z,97381.38
2023-05-06T06:53:21.462Z,97382.52
2023-05-06T06:55:49.250Z,97378.67
2023-05-06T06:58:17.059Z,97378.41
2023-05-06T07:00:45.630Z,97374.54
2023-05-06T07:03:19.347Z,97372.77
2023-05-06T07:05:47.538Z,97375.66
2023-05-06T07:08:17.374Z,97373.64
2023-05-06T07:10:45.225Z,97376.67
2023-05-06T07:13:13.226Z,97373.84
2023-05-06T07:15:41.245Z,97372.92
2023-05-06T07:18:09.923Z,97374.75
2023-05-06T07:20:37.781Z,97372.74
2023-05-06T07:23:06.290Z,97372.61
2023-05-06T07:25:35.500Z,97365.46
2023-05-06T07:28:03.524Z,97362.05
2023-05-06T07:30:31.400Z,97361.61
2023-05-06T07:32:59.577Z,97361.34
2023-05-06T07:35:27.487Z,97359.87
2023-05-06T07:37:55.442Z,97355.10
2023-05-06T07:40:23.331Z,97348.95
2023-05-06T07:42:51.405Z,97346.77
2023-05-06T07:45:19.791Z,97346.30
2023-05-06T07:47:47.734Z,97342.70
2023-05-06T07:50:15.733Z,97339.80
2023-05-06T07:52:43.716Z,97339.00
2023-05-06T07:55:12.267Z,97340.78
2023-05-06T07:57:40.490Z,97336.99
2023-05-06T08:00:10.221Z,97336.30
2023-05-06T08:02:44.939Z,97335.66
2023-05-06T08:05:13.714Z,97332.72
2023-05-06T08:07:42.337Z,97333.30
2023-05-06T08:10:11.079Z,97342.33
2023-05-06T08:12:39.070Z,97338.02
2023-05-06T08:15:08.043Z,97334.61
2023-05-06T08:17:36.103Z,97338.98
2023-05-06T08:20:04.916Z,97340.74
2023-05-06T08:22:32.794Z,97342.88
2023-05-06T08:25:01.199Z,97340.41
2023-05-06T08:27:29.008Z,97335.75
2023-05-06T08:29:57.440Z,97337.02
2023-05-06T08:32:25.311Z,97335.34
2023-05-06T08:34:53.280Z,97331.52
2023-05-06T08:37:21.281Z,97336.91
2023-05-06T08:39:49.348Z,97335.70
2023-05-06T08:42:17.455Z,97337.83
2023-05-06T08:44:46.120Z,97332.52
2023-05-06T08:47:14.089Z,97335.61
2023-05-06T08:49:41.965Z,97331.56
2023-05-06T08:52:09.935Z,97329.92
2023-05-06T08:54:38.313Z,97333.20
2023-05-06T08:57:12.450Z,97329.88
2023-05-06T08:59:41.612Z,97326.83
2023-05-06T09:02:11.276Z,97321.64
2023-05-06T09:04:39.959Z,97323.64
2023-05-06T09:07:08.138Z,97324.16
2023-05-06T09:09:35.996Z,97321.90
2023-05-06T09:12:04.280Z,97321.05
2023-05-06T09:14:32.145Z,97320.42
2023-05-06T09:17:00.262Z,97321.10
2023-05-06T09:19:28.145Z,97321.39
2023-05-06T09:21:56.889Z,97314.77
2023-05-06T09:24:25.504Z,97316.17
2023-05-06T09:26:55.547Z,97314.63
2023-05-06T09:29:23.461Z,97313.33
2023-05-06T09:31:53.909Z,97309.58
2023-05-06T09:34:22.744Z,97310.16
2023-05-06T09:36:52.518Z,97311.66
2023-05-06T09:39:25.296Z,97307.66
2023-05-06T09:41:53.891Z,97307.98
2023-05-06T09:44:23.290Z,97304.64
2023-05-06T09:46:51.216Z,97301.20
2023-05-06T09:49:19.142Z,97297.44
2023-05-06T09:51:51.420Z,97296.52
2023-05-06T09:54:19.702Z,97296.63
2023-05-06T09:56:47.999Z,97294.92
2023-05-06T09:59:18.522Z,97294.49
2023-05-06T10:01:47.237Z,97297.52
2023-05-06T10:04:16.226Z,97291.89
2023-05-06T10:06:44.308Z,97287.74
2023-05-06T10:09:12.560Z,97296.86
2023-05-06T10:11:40.604Z,97295.94
2023-05-06T10:14:09.309Z,97292.52
2023-05-06T10:16:37.772Z,97291.01
2023-05-06T10:19:07.549Z,97281.80
2023-05-06T10:21:36.397Z,97279.42
2023-05-06T10:24:11.479Z,97277.30
2023-05-06T10:26:41.007Z,97275.55
2023-05-06T10:29:09.645Z,97270.85
2023-05-06T10:31:39.977Z,97267.08
2023-05-06T10:34:08.055Z,97269.38
2023-05-06T10:36:37.563Z,97266.48
2023-05-06T10:39:07.478Z,97262.02
2023-05-06T10:41:37.202Z,97259.79
2023-05-06T10:44:06.150Z,97266.51
2023-05-06T10:46:54.123Z,97261.00
2023-05-06T10:49:21.986Z,97260.98
2023-05-06T10:52:12.289Z,97260.73
2023-05-06T10:54:51.134Z,97256.19
2023-05-06T10:57:21.922Z,97249.11
2023-05-06T10:59:49.834Z,97248.70
2023-05-06T11:02:20.178Z,97251.06
2023-05-06T11:04:53.293Z,97247.44
2023-05-06T11:07:22.635Z,97243.37
2023-05-06T11:09:54.815Z,97239.13
2023-05-06T11:12:23.096Z,97242.92
2023-05-06T11:14:51.161Z,97242.77
2023-05-06T11:17:32.171Z,97238.25
2023-05-06T11:20:19.092Z,97237.31
2023-05-06T11:22:47.012Z,97239.27
2023-05-06T11:25:15.188Z,97238.86
2023-05-06T11:27:43.071Z,97235.05
2023-05-06T11:30:14.506Z,97232.42
2023-05-06T11:32:42.969Z,97221.28
2023-05-06T11:35:11.902Z,97221.09
2023-05-06T11:37:42.495Z,97222.86
2023-05-06T11:40:14.136Z,97222.21
2023-05-06T11:42:42.260Z,97224.60
2023-05-06T11:45:11.742Z,97228.45
2023-05-06T11:47:43.536Z,97230.01
2023-05-06T11:50:11.821Z,97226.63
2023-05-06T11:52:40.423Z,97224.00
2023-05-06T11:55:10.093Z,97224.10
2023-05-06T11:57:41.766Z,97223.92
2023-05-06T12:00:10.194Z,97218.86
2023-05-06T12:02:41.036Z,97220.82
2023-05-06T12:05:09.529Z,97220.02
2023-05-06T12:07:37.579Z,97216.77
2023-05-06T12:10:05.850Z,97216.70
2023-05-06T12:12:34.084Z,97213.45
2023-05-06T12:15:03.957Z,97212.15
2023-05-06T12:17:32.346Z,97212.26
2023-05-06T12:20:00.405Z,97211.89
2023-05-06T12:22:28.383Z,97210.53
2023-05-06T12:24:56.444Z,97207.77
2023-05-06T12:27:31.058Z,97200.20
2023-05-06T12:29:58.971Z,97197.98
2023-05-06T12:32:27.348Z,97196.08
2023-05-06T12:34:56.018Z,97194.15
2023-05-06T12:37:24.662Z,97190.68
2023-05-06T12:39:52.742Z,97189.15
2023-05-06T12:42:21.506Z,97189.17
2023-05-06T12:44:50.706Z,97186.76
2023-05-06T12:47:19.688Z,97185.97
2023-05-06T12:49:48.656Z,97187.23
2023-05-06T12:52:18.096Z,97185.36
2023-05-06T12:54:46.383Z,97179.21
2023-05-06T12:57:14.251Z,97180.53
2023-05-06T12:59:43.264Z,97181.89
2023-05-06T13:02:11.526Z,97181.13
2023-05-06T13:04:39.603Z,97180.27
2023-05-06T13:07:07.440Z,97180.77
2023-05-06T13:09:35.246Z,97177.09
2023-05-06T13:12:04.777Z,97174.52
2023-05-06T13:14:32.601Z,97173.38
2023-05-06T13:17:01.386Z,97171.87
2023-05-06T13:19:32.939Z,97171.25
2023-05-06T13:22:01.475Z,97168.04
2023-05-06T13:24:29.967Z,97168.34
2023-05-06T13:27:00.865Z,97164.23
2023-05-06T13:29:29.819Z,97162.46
2023-05-06T13:31:57.985Z,97160.16
2023-05-06T13:34:26.166Z,97160.84
2023-05-06T13:36:57.196Z,97158.02
2023-05-06T13:39:25.783Z,97157.89
2023-05-06T13:41:54.313Z,97157.38
2023-05-06T13:44:22.378Z,97154.95
2023-05-06T13:46:50.563Z,97155.48
2023-05-06T13:49:18.713Z,97156.20
2023-05-06T13:51:46.576Z,97152.91
2023-05-06T13:54:14.551Z,97151.04
2023-05-06T13:56:42.381Z,97153.91
2023-05-06T13:59:11.948Z,97153.44
2023-05-06T14:01:40.548Z,97156.44
2023-05-06T14:04:08.511Z,97155.45
2023-05-06T14:06:36.467Z,97158.36
2023-05-06T14:09:04.795Z,97155.84
2023-05-06T14:11:32.853Z,97157.70
2023-05-06T14:14:00.907Z,97157.13
2023-05-06T14:16:28.805Z,97158.27
2023-05-06T14:18:56.868Z,97155.05
2023-05-06T14:21:25.135Z,97157.02
2023-05-06T14:23:53.014Z,97157.17
2023-05-06T14:26:21.599Z,97158.56
2023-05-06T14:28:49.465Z,97157.55
2023-05-06T14:31:17.356Z,97156.18
2023-05-06T14:33:45.519Z,97153.65
2023-05-06T14:36:17.996Z,97157.41
2023-05-06T14:38:45.868Z,97161.50
2023-05-06T14:41:13.846Z,97156.63
2023-05-06T14:43:41.724Z,97156.39
2023-05-06T14:46:11.287Z,97160.17
2023-05-06T14:48:39.262Z,97161.55
2023-05-06T14:51:07.172Z,97161.77
2023-05-06T14:53:35.143Z,97160.91
2023-05-06T14:56:03.138Z,97159.76
2023-05-06T14:58:31.051Z,97157.59
2023-05-06T15:00:59.001Z,97157.27
2023-05-06T15:03:26.832Z,97155.38
2023-05-06T15:05:54.938Z,97158.23
2023-05-06T15:08:22.978Z,97157.05
2023-05-06T15:10:50.982Z,97156.65
2023-05-06T15:13:18.960Z,97152.48
2023-05-06T15:15:46.912Z,97152.15
2023-05-06T15:18:15.201Z,97151.52
2023-05-06T15:20:43.087Z,97149.78
2023-05-06T15:23:10.940Z,97152.38
2023-05-06T15:25:39.021Z,97151.41
2023-05-06T15:28:07.208Z,97154.20
2023-05-06T15:30:36.801Z,97145.17
2023-05-06T15:33:05.215Z,97143.77
2023-05-06T15:35:33.270Z,97141.44
2023-05-06T15:38:02.586Z,97141.29
2023-05-06T15:40:31.275Z,97137.60
2023-05-06T15:42:59.523Z,97138.83
2023-05-06T15:45:27.465Z,97135.84
2023-05-06T15:47:56.380Z,97131.61
2023-05-06T15:50:32.766Z,97130.21
2023-05-06T15:53:02.769Z,97125.17
2023-05-06T15:55:35.319Z,97125.81
2023-05-06T15:58:11.780Z,97123.15
2023-05-06T16:00:39.721Z,97123.08
2023-05-06T16:03:09.726Z,97124.77
2023-05-06T16:05:39.920Z,97127.81
2023-05-06T16:08:07.909Z,97130.73
2023-05-06T16:10:35.852Z,97132.02
2023-05-06T16:13:03.732Z,97136.27
2023-05-06T16:15:31.709Z,97136.20
2023-05-06T16:17:59.578Z,97131.04
2023-05-06T16:20:27.465Z,97132.64
2023-05-06T16:22:55.477Z,97128.17
2023-05-06T16:25:23.459Z,97125.80
2023-05-06T16:27:51.263Z,97128.50
2023-05-06T16:30:19.412Z,97126.60
2023-05-06T16:32:47.392Z,97129.79
2023-05-06T16:35:18.526Z,97131.80
2023-05-06T16:37:46.409Z,97129.98
2023-05-06T16:40:15.185Z,97128.52
2023-05-06T16:42:43.074Z,97127.55
2023-05-06T16:45:11.662Z,97127.16
2023-05-06T16:47:39.529Z,97123.23
2023-05-06T16:50:07.877Z,97122.36
2023-05-06T16:52:36.402Z,97119.66
2023-05-06T16:55:04.481Z,97122.95
2023-05-06T16:57:32.339Z,97124.44
2023-05-06T17:00:02.112Z,97124.91
2023-05-06T17:02:30.149Z,97128.21
2023-05-06T17:04:58.129Z,97126.33
2023-05-06T17:07:26.299Z,97127.55
2023-05-06T17:09:54.057Z,97129.31
2023-05-06T17:12:23.863Z,97132.67
2023-05-06T17:14:51.900Z,97136.58
2023-05-06T17:17:21.448Z,97139.41
2023-05-06T17:19:49.768Z,97140.35
2023-05-06T17:22:17.536Z,97147.19
2023-05-06T17:24:45.836Z,97143.36
2023-05-06T17:27:13.765Z,97146.55
2023-05-06T17:29:41.637Z,97150.17
2023-05-06T17:32:09.714Z,97150.39
2023-05-06T17:34:37.989Z,97155.63
2023-05-06T17:37:06.306Z,97158.30
2023-05-06T17:39:34.294Z,97165.30
2023-05-06T17:42:03.556Z,97170.95
2023-05-06T17:44:31.721Z,97180.14
2023-05-06T17:46:59.631Z,97189.85
2023-05-06T17:49:27.792Z,97191.70
2023-05-06T17:51:56.155Z,97191.58
2023-05-06T17:54:24.123Z,97192.68
2023-05-06T17:56:52.964Z,97194.67
2023-05-06T17:59:21.217Z,97197.58
2023-05-06T18:01:49.188Z,97200.29
2023-05-06T18:04:17.222Z,97200.51
2023-05-06T18:06:46.468Z,97200.95
2023-05-06T18:09:15.063Z,97200.23
2023-05-06T18:11:43.890Z,97198.96
2023-05-06T18:14:11.935Z,97207.45
2023-05-06T18:16:39.877Z,97210.27
2023-05-06T18:19:07.956Z,97210.56
2023-05-06T18:21:36.157Z,97210.35
2023-05-06T18:24:15.315Z,97213.48
2023-05-06T18:26:46.033Z,97211.64
2023-05-06T18:29:14.562Z,97212.77
2023-05-06T18:31:42.758Z,97211.69
2023-05-06T18:34:11.109Z,97218.75
2023-05-06T18:36:39.033Z,97223.92
2023-05-06T18:39:07.217Z,97223.34
2023-05-06T18:41:35.368Z,97226.02
2023-05-06T18:44:04.598Z,97232.41
2023-05-06T18:46:32.512Z,97234.80
2023-05-06T18:49:01.097Z,97236.92
2023-05-06T18:51:29.053Z,97238.33
2023-05-06T18:53:56.935Z,97242.21
2023-05-06T18:56:24.835Z,97246.59
2023-05-06T18:58:52.874Z,97249.70
2023-05-06T19:01:21.223Z,97252.16
2023-05-06T19:03:49.426Z,97250.34
2023-05-06T19:06:17.406Z,97250.55
2023-05-06T19:08:45.465Z,97249.23
2023-05-06T19:11:18.182Z,97251.21
2023-05-06T19:13:46.371Z,97252.19
2023-05-06T19:16:16.086Z,97251.79
2023-05-06T19:18:44.051Z,97249.48
2023-05-06T19:21:12.518Z,97250.09
2023-05-06T19:23:40.443Z,97246.23
2023-05-06T19:26:11.258Z,97243.39
2023-05-06T19:28:39.832Z,97244.05
2023-05-06T19:31:10.860Z,97245.06
2023-05-06T19:33:39.138Z,97248.20
2023-05-06T19:36:07.261Z,97251.45
2023-05-06T19:38:35.423Z,97252.58
2023-05-06T19:41:03.377Z,97251.25
2023-05-06T19:43:31.366Z,97249.75
2023-05-06T19:45:59.368Z,97251.75
2023-05-06T19:48:27.371Z,97252.63
2023-05-06T19:50:55.379Z,97256.52
2023-05-06T19:53:24.051Z,97253.27
2023-05-06T19:55:53.588Z,97261.59
2023-05-06T19:58:21.690Z,97260.36
2023-05-06T20:00:49.747Z,97258.41
2023-05-06T20:03:18.061Z,97258.23
2023-05-06T20:05:46.094Z,97254.08
2023-05-06T20:08:14.074Z,97257.84
2023-05-06T20:10:41.970Z,97261.45
2023-05-06T20:13:11.979Z,97258.52
2023-05-06T20:15:40.038Z,97258.77
2023-05-06T20:18:08.051Z,97259.02
2023-05-06T20:20:36.287Z,97255.75
2023-05-06T20:23:04.234Z,97254.20
2023-05-06T20:25:32.343Z,97257.80
2023-05-06T20:28:00.436Z,97262.81
2023-05-06T20:30:28.550Z,97261.54
2023-05-06T20:32:56.600Z,97262.48
2023-05-06T20:35:24.755Z,97263.09
2023-05-06T20:37:54.681Z,97260.60
2023-05-06T20:40:22.908Z,97257.67
2023-05-06T20:42:50.908Z,97258.45
2023-05-06T20:45:18.921Z,97259.08
2023-05-06T20:47:46.698Z,97253.30
2023-05-06T20:50:17.365Z,97249.50
2023-05-06T20:52:46.168Z,97250.61
2023-05-06T20:55:15.427Z,97252.02
2023-05-06T20:57:43.999Z,97249.11
2023-05-06T21:00:12.563Z,97253.25
2023-05-06T21:02:41.900Z,97252.60
2023-05-06T21:05:11.176Z,97253.23
2023-05-06T21:07:39.516Z,97251.30
2023-05-06T21:10:07.561Z,97251.23
2023-05-06T21:12:35.472Z,97248.81
2023-05-06T21:15:03.825Z,97245.02
2023-05-06T21:17:31.645Z,97241.27
2023-05-06T21:19:59.614Z,97239.34
2023-05-06T21:22:27.516Z,97241.73
2023-05-06T21:24:56.117Z,97243.50
2023-05-06T21:27:24.166Z,97246.02
2023-05-06T21:29:51.965Z,97251.02
2023-05-06T21:32:19.908Z,97247.73
2023-05-06T21:34:47.912Z,97246.87
2023-05-06T21:37:15.879Z,97254.83
2023-05-06T21:39:43.785Z,97257.66
2023-05-06T21:42:11.633Z,97255.78
2023-05-06T21:44:39.797Z,97252.01
2023-05-06T21:47:07.679Z,97251.07
2023-05-06T21:49:36.769Z,97248.65
2023-05-06T21:52:06.614Z,97250.58
2023-05-06T21:54:34.572Z,97251.94
2023-05-06T21:57:02.743Z,97251.73
2023-05-06T21:59:30.568Z,97248.52
2023-05-06T22:01:58.411Z,97251.11
2023-05-06T22:04:26.649Z,97257.73
2023-05-06T22:06:54.531Z,97256.17
2023-05-06T22:09:23.432Z,97253.58
2023-05-06T22:11:51.305Z,97251.67
2023-05-06T22:14:21.907Z,97257.81
2023-05-06T22:16:52.919Z,97260.29
2023-05-06T22:19:21.343Z,97259.26
2023-05-06T22:21:49.238Z,97256.98
2023-05-06T22:24:17.225Z,97249.64
2023-05-06T22:26:44.964Z,97248.75
2023-05-06T22:29:12.856Z,97247.55
2023-05-06T22:31:40.849Z,97243.39
2023-05-06T22:34:08.905Z,97246.16
2023-05-06T22:36:36.797Z,97246.36
2023-05-06T22:39:04.589Z,97246.35
2023-05-06T22:41:32.422Z,97246.27
2023-05-06T22:44:00.499Z,97248.48
2023-05-06T22:46:29.276Z,97246.13
2023-05-06T22:48:58.074Z,97241.22
2023-05-06T22:51:26.054Z,97237.64
2023-05-06T22:53:53.923Z,97243.57
2023-05-06T22:56:22.105Z,97240.05
2023-05-06T22:58:49.976Z,97236.03
2023-05-06T23:01:18.151Z,97235.52
2023-05-06T23:03:46.100Z,97233.77
2023-05-06T23:06:13.896Z,97230.98
2023-05-06T23:08:41.778Z,97231.20
2023-05-06T23:11:09.616Z,97226.77
2023-05-06T23:13:37.525Z,97229.19
2023-05-06T23:16:07.685Z,97227.63
2023-05-06T23:18:36.064Z,97224.08
2023-05-06T23:21:04.200Z,97223.92
2023-05-06T23:23:32.699Z,97221.95
2023-05-06T23:26:00.683Z,97221.16
2023-05-06T23:28:30.021Z,97217.16
2023-05-06T23:30:58.027Z,97216.89
2023-05-06T23:33:25.916Z,97214.16
2023-05-06T23:35:53.678Z,97213.32
2023-05-06T23:38:21.765Z,97208.41
2023-05-06T23:40:49.661Z,97210.22
2023-05-06T23:43:17.612Z,97207.14
2023-05-06T23:45:45.563Z,97207.98
2023-05-06T23:48:13.465Z,97204.85
2023-05-06T23:50:41.539Z,97207.94
2023-05-06T23:53:09.398Z,97206.46
2023-05-06T23:55:37.434Z,97202.76
2023-05-06T23:58:05.361Z,97202.56
